sensor_id;sensor_type;location;lat;lon;timestamp;temperature;humidity
41294;DHT22;27037;52.010;4.446;2024-03-07T00:01:55;5.80;99.90
41294;DHT22;27037;52.010;4.446;2024-03-07T00:04:20;5.80;99.90
41294;DHT22;27037;52.010;4.446;2024-03-07T00:06:46;5.80;99.90
41294;DHT22;27037;52.010;4.446;2024-03-07T00:09:11;5.70;99.90
41294;DHT22;27037;52.010;4.446;2024-03-07T00:11:37;5.70;99.90
41294;DHT22;27037;52.010;4.446;2024-03-07T00:14:03;5.70;99.90
41294;DHT22;27037;52.010;4.446;2024-03-07T00:16:31;5.70;99.90
41294;DHT22;27037;52.010;4.446;2024-03-07T00:18:59;5.70;99.90
41294;DHT22;27037;52.010;4.446;2024-03-07T00:21:26;5.60;99.90
41294;DHT22;27037;52.010;4.446;2024-03-07T00:23:51;5.60;99.90
41294;DHT22;27037;52.010;4.446;2024-03-07T00:26:19;5.60;99.90
41294;DHT22;27037;52.010;4.446;2024-03-07T00:28:44;5.60;99.90
41294;DHT22;27037;52.010;4.446;2024-03-07T00:31:10;5.50;99.90
41294;DHT22;27037;52.010;4.446;2024-03-07T00:33:36;5.50;99.90
41294;DHT22;27037;52.010;4.446;2024-03-07T00:36:02;5.50;99.90
41294;DHT22;27037;52.010;4.446;2024-03-07T00:38:28;5.50;99.90
41294;DHT22;27037;52.010;4.446;2024-03-07T00:40:53;5.50;99.90
41294;DHT22;27037;52.010;4.446;2024-03-07T00:43:19;5.50;99.90
41294;DHT22;27037;52.010;4.446;2024-03-07T00:45:45;5.50;99.90
41294;DHT22;27037;52.010;4.446;2024-03-07T00:48:15;5.40;99.90
41294;DHT22;27037;52.010;4.446;2024-03-07T00:50:41;5.40;99.90
41294;DHT22;27037;52.010;4.446;2024-03-07T00:53:08;5.40;99.90
41294;DHT22;27037;52.010;4.446;2024-03-07T00:55:33;5.40;99.90
41294;DHT22;27037;52.010;4.446;2024-03-07T00:57:59;5.40;99.90
41294;DHT22;27037;52.010;4.446;2024-03-07T01:00:25;5.40;99.90
41294;DHT22;27037;52.010;4.446;2024-03-07T01:02:50;5.40;99.90
41294;DHT22;27037;52.010;4.446;2024-03-07T01:05:19;5.40;99.90
41294;DHT22;27037;52.010;4.446;2024-03-07T01:07:44;5.40;99.90
41294;DHT22;27037;52.010;4.446;2024-03-07T01:10:13;5.40;99.90
41294;DHT22;27037;52.010;4.446;2024-03-07T01:12:39;5.30;99.90
41294;DHT22;27037;52.010;4.446;2024-03-07T01:15:05;5.30;99.90
41294;DHT22;27037;52.010;4.446;2024-03-07T01:17:31;5.30;99.90
41294;DHT22;27037;52.010;4.446;2024-03-07T01:19:57;5.30;99.90
41294;DHT22;27037;52.010;4.446;2024-03-07T01:22:23;5.30;99.90
41294;DHT22;27037;52.010;4.446;2024-03-07T01:24:49;5.30;99.90
41294;DHT22;27037;52.010;4.446;2024-03-07T01:27:16;5.30;99.90
41294;DHT22;27037;52.010;4.446;2024-03-07T01:29:42;5.30;99.90
41294;DHT22;27037;52.010;4.446;2024-03-07T01:32:10;5.30;99.90
41294;DHT22;27037;52.010;4.446;2024-03-07T01:34:36;5.30;99.90
41294;DHT22;27037;52.010;4.446;2024-03-07T01:37:01;5.20;99.90
41294;DHT22;27037;52.010;4.446;2024-03-07T01:39:27;5.20;99.90
41294;DHT22;27037;52.010;4.446;2024-03-07T01:41:53;5.20;99.90
41294;DHT22;27037;52.010;4.446;2024-03-07T01:44:19;5.20;99.90
41294;DHT22;27037;52.010;4.446;2024-03-07T01:46:45;5.20;99.90
41294;DHT22;27037;52.010;4.446;2024-03-07T01:49:11;5.10;99.90
41294;DHT22;27037;52.010;4.446;2024-03-07T01:51:37;5.10;99.90
41294;DHT22;27037;52.010;4.446;2024-03-07T01:54:03;5.10;99.90
41294;DHT22;27037;52.010;4.446;2024-03-07T01:56:30;5.10;99.90
41294;DHT22;27037;52.010;4.446;2024-03-07T01:58:55;5.10;99.90
41294;DHT22;27037;52.010;4.446;2024-03-07T02:01:22;5.10;99.90
41294;DHT22;27037;52.010;4.446;2024-03-07T02:03:48;5.10;99.90
41294;DHT22;27037;52.010;4.446;2024-03-07T02:06:14;5.00;99.90
41294;DHT22;27037;52.010;4.446;2024-03-07T02:08:41;5.00;99.90
41294;DHT22;27037;52.010;4.446;2024-03-07T02:11:06;5.00;99.90
41294;DHT22;27037;52.010;4.446;2024-03-07T02:13:32;5.00;99.90
41294;DHT22;27037;52.010;4.446;2024-03-07T02:15:58;5.00;99.90
41294;DHT22;27037;52.010;4.446;2024-03-07T02:18:24;5.00;99.90
41294;DHT22;27037;52.010;4.446;2024-03-07T02:20:50;5.00;99.90
41294;DHT22;27037;52.010;4.446;2024-03-07T02:23:15;5.00;99.90
41294;DHT22;27037;52.010;4.446;2024-03-07T02:25:41;5.00;99.90
41294;DHT22;27037;52.010;4.446;2024-03-07T02:28:07;5.00;99.90
41294;DHT22;27037;52.010;4.446;2024-03-07T02:30:33;4.90;99.90
41294;DHT22;27037;52.010;4.446;2024-03-07T02:32:59;4.90;99.90
41294;DHT22;27037;52.010;4.446;2024-03-07T02:35:32;4.90;99.90
41294;DHT22;27037;52.010;4.446;2024-03-07T02:37:58;4.90;99.90
41294;DHT22;27037;52.010;4.446;2024-03-07T02:40:24;4.90;99.90
41294;DHT22;27037;52.010;4.446;2024-03-07T02:42:49;4.90;99.90
41294;DHT22;27037;52.010;4.446;2024-03-07T02:45:15;4.90;99.90
41294;DHT22;27037;52.010;4.446;2024-03-07T02:47:41;4.90;99.90
41294;DHT22;27037;52.010;4.446;2024-03-07T02:50:09;4.90;99.90
41294;DHT22;27037;52.010;4.446;2024-03-07T02:52:35;4.90;99.90
41294;DHT22;27037;52.010;4.446;2024-03-07T02:55:00;4.80;99.90
41294;DHT22;27037;52.010;4.446;2024-03-07T02:57:28;4.80;99.90
41294;DHT22;27037;52.010;4.446;2024-03-07T02:59:54;4.80;99.90
41294;DHT22;27037;52.010;4.446;2024-03-07T03:02:20;4.80;99.90
41294;DHT22;27037;52.010;4.446;2024-03-07T03:04:45;4.80;99.90
41294;DHT22;27037;52.010;4.446;2024-03-07T03:07:11;4.80;99.90
41294;DHT22;27037;52.010;4.446;2024-03-07T03:09:36;4.80;99.90
41294;DHT22;27037;52.010;4.446;2024-03-07T03:12:08;4.80;99.90
41294;DHT22;27037;52.010;4.446;2024-03-07T03:14:34;4.80;99.90
41294;DHT22;27037;52.010;4.446;2024-03-07T03:17:00;4.80;99.90
41294;DHT22;27037;52.010;4.446;2024-03-07T03:19:25;4.80;99.90
41294;DHT22;27037;52.010;4.446;2024-03-07T03:21:52;4.80;99.90
41294;DHT22;27037;52.010;4.446;2024-03-07T03:24:17;4.80;99.90
41294;DHT22;27037;52.010;4.446;2024-03-07T03:26:43;4.80;99.90
41294;DHT22;27037;52.010;4.446;2024-03-07T03:29:09;4.80;99.90
41294;DHT22;27037;52.010;4.446;2024-03-07T03:31:37;4.80;99.90
41294;DHT22;27037;52.010;4.446;2024-03-07T03:34:02;4.80;99.90
41294;DHT22;27037;52.010;4.446;2024-03-07T03:36:28;4.80;99.90
41294;DHT22;27037;52.010;4.446;2024-03-07T03:38:54;4.80;99.90
41294;DHT22;27037;52.010;4.446;2024-03-07T03:41:20;4.80;99.90
41294;DHT22;27037;52.010;4.446;2024-03-07T03:43:46;4.80;99.90
41294;DHT22;27037;52.010;4.446;2024-03-07T03:46:13;4.80;99.90
41294;DHT22;27037;52.010;4.446;2024-03-07T03:48:39;4.80;99.90
41294;DHT22;27037;52.010;4.446;2024-03-07T03:51:07;4.80;99.90
41294;DHT22;27037;52.010;4.446;2024-03-07T03:53:33;4.80;99.90
41294;DHT22;27037;52.010;4.446;2024-03-07T03:55:59;4.80;99.90
41294;DHT22;27037;52.010;4.446;2024-03-07T03:58:25;4.70;99.90
41294;DHT22;27037;52.010;4.446;2024-03-07T04:00:50;4.80;99.90
41294;DHT22;27037;52.010;4.446;2024-03-07T04:03:17;4.70;99.90
41294;DHT22;27037;52.010;4.446;2024-03-07T04:05:42;4.70;99.90
41294;DHT22;27037;52.010;4.446;2024-03-07T04:08:08;4.70;99.90
41294;DHT22;27037;52.010;4.446;2024-03-07T04:10:35;4.70;99.90
41294;DHT22;27037;52.010;4.446;2024-03-07T04:13:00;4.70;99.90
41294;DHT22;27037;52.010;4.446;2024-03-07T04:15:26;4.70;99.90
41294;DHT22;27037;52.010;4.446;2024-03-07T04:17:53;4.70;99.90
41294;DHT22;27037;52.010;4.446;2024-03-07T04:20:18;4.60;99.90
41294;DHT22;27037;52.010;4.446;2024-03-07T04:22:44;4.70;99.90
41294;DHT22;27037;52.010;4.446;2024-03-07T04:25:09;4.70;99.90
41294;DHT22;27037;52.010;4.446;2024-03-07T04:27:36;4.70;99.90
41294;DHT22;27037;52.010;4.446;2024-03-07T04:30:06;4.70;99.90
41294;DHT22;27037;52.010;4.446;2024-03-07T04:32:32;4.70;99.90
41294;DHT22;27037;52.010;4.446;2024-03-07T04:35:00;4.70;99.90
41294;DHT22;27037;52.010;4.446;2024-03-07T04:37:26;4.70;99.90
41294;DHT22;27037;52.010;4.446;2024-03-07T04:39:55;4.70;99.90
41294;DHT22;27037;52.010;4.446;2024-03-07T04:42:21;4.80;99.90
41294;DHT22;27037;52.010;4.446;2024-03-07T04:44:46;4.80;99.90
41294;DHT22;27037;52.010;4.446;2024-03-07T04:47:12;4.80;99.90
41294;DHT22;27037;52.010;4.446;2024-03-07T04:49:37;4.80;99.90
41294;DHT22;27037;52.010;4.446;2024-03-07T04:52:03;4.80;99.90
41294;DHT22;27037;52.010;4.446;2024-03-07T04:54:30;4.80;99.90
41294;DHT22;27037;52.010;4.446;2024-03-07T04:56:57;4.80;99.90
41294;DHT22;27037;52.010;4.446;2024-03-07T04:59:22;4.80;99.90
41294;DHT22;27037;52.010;4.446;2024-03-07T05:01:49;4.80;99.90
41294;DHT22;27037;52.010;4.446;2024-03-07T05:04:16;4.80;99.90
41294;DHT22;27037;52.010;4.446;2024-03-07T05:06:42;4.70;99.90
41294;DHT22;27037;52.010;4.446;2024-03-07T05:09:09;4.70;99.90
41294;DHT22;27037;52.010;4.446;2024-03-07T05:11:36;4.70;99.90
41294;DHT22;27037;52.010;4.446;2024-03-07T05:14:02;4.70;99.90
41294;DHT22;27037;52.010;4.446;2024-03-07T05:16:29;4.70;99.90
41294;DHT22;27037;52.010;4.446;2024-03-07T05:18:55;4.70;99.90
41294;DHT22;27037;52.010;4.446;2024-03-07T05:21:25;4.70;99.90
41294;DHT22;27037;52.010;4.446;2024-03-07T05:24:06;4.70;99.90
41294;DHT22;27037;52.010;4.446;2024-03-07T05:26:36;4.70;99.90
41294;DHT22;27037;52.010;4.446;2024-03-07T05:29:09;4.70;99.90
41294;DHT22;27037;52.010;4.446;2024-03-07T05:31:36;4.70;99.90
41294;DHT22;27037;52.010;4.446;2024-03-07T05:34:03;4.70;99.90
41294;DHT22;27037;52.010;4.446;2024-03-07T05:36:32;4.70;99.90
41294;DHT22;27037;52.010;4.446;2024-03-07T05:38:58;4.70;99.90
41294;DHT22;27037;52.010;4.446;2024-03-07T05:41:34;4.70;99.90
41294;DHT22;27037;52.010;4.446;2024-03-07T05:43:59;4.70;99.90
41294;DHT22;27037;52.010;4.446;2024-03-07T05:46:25;4.70;99.90
41294;DHT22;27037;52.010;4.446;2024-03-07T05:48:51;4.70;99.90
41294;DHT22;27037;52.010;4.446;2024-03-07T05:51:22;4.60;99.90
41294;DHT22;27037;52.010;4.446;2024-03-07T05:53:48;4.70;99.90
41294;DHT22;27037;52.010;4.446;2024-03-07T05:56:13;4.60;99.90
41294;DHT22;27037;52.010;4.446;2024-03-07T05:58:39;4.60;99.90
41294;DHT22;27037;52.010;4.446;2024-03-07T06:01:05;4.70;99.90
41294;DHT22;27037;52.010;4.446;2024-03-07T06:03:31;4.70;99.90
41294;DHT22;27037;52.010;4.446;2024-03-07T06:05:57;4.60;99.90
41294;DHT22;27037;52.010;4.446;2024-03-07T06:08:23;4.60;99.90
41294;DHT22;27037;52.010;4.446;2024-03-07T06:10:48;4.60;99.90
41294;DHT22;27037;52.010;4.446;2024-03-07T06:13:16;4.60;99.90
41294;DHT22;27037;52.010;4.446;2024-03-07T06:15:46;4.60;99.90
41294;DHT22;27037;52.010;4.446;2024-03-07T06:18:12;4.60;99.90
41294;DHT22;27037;52.010;4.446;2024-03-07T06:20:39;4.60;99.90
41294;DHT22;27037;52.010;4.446;2024-03-07T06:23:06;4.60;99.90
41294;DHT22;27037;52.010;4.446;2024-03-07T06:25:35;4.50;99.90
41294;DHT22;27037;52.010;4.446;2024-03-07T06:28:12;4.60;99.90
41294;DHT22;27037;52.010;4.446;2024-03-07T06:30:40;4.60;99.90
41294;DHT22;27037;52.010;4.446;2024-03-07T06:33:06;4.60;99.90
41294;DHT22;27037;52.010;4.446;2024-03-07T06:35:32;4.60;99.90
41294;DHT22;27037;52.010;4.446;2024-03-07T06:38:00;4.50;99.90
41294;DHT22;27037;52.010;4.446;2024-03-07T06:40:26;4.50;99.90
41294;DHT22;27037;52.010;4.446;2024-03-07T06:42:51;4.50;99.90
41294;DHT22;27037;52.010;4.446;2024-03-07T06:45:18;4.50;99.90
41294;DHT22;27037;52.010;4.446;2024-03-07T06:47:44;4.50;99.90
41294;DHT22;27037;52.010;4.446;2024-03-07T06:50:09;4.50;99.90
41294;DHT22;27037;52.010;4.446;2024-03-07T06:52:39;4.50;99.90
41294;DHT22;27037;52.010;4.446;2024-03-07T06:55:05;4.50;99.90
41294;DHT22;27037;52.010;4.446;2024-03-07T06:57:32;4.50;99.90
41294;DHT22;27037;52.010;4.446;2024-03-07T06:59:59;4.50;99.90
41294;DHT22;27037;52.010;4.446;2024-03-07T07:02:37;4.50;99.90
41294;DHT22;27037;52.010;4.446;2024-03-07T07:05:04;4.50;99.90
41294;DHT22;27037;52.010;4.446;2024-03-07T07:07:32;4.50;99.90
41294;DHT22;27037;52.010;4.446;2024-03-07T07:10:01;4.60;99.90
41294;DHT22;27037;52.010;4.446;2024-03-07T07:12:26;4.60;99.90
41294;DHT22;27037;52.010;4.446;2024-03-07T07:14:53;4.60;99.90
41294;DHT22;27037;52.010;4.446;2024-03-07T07:17:19;4.60;99.90
41294;DHT22;27037;52.010;4.446;2024-03-07T07:19:45;4.60;99.90
41294;DHT22;27037;52.010;4.446;2024-03-07T07:22:10;4.60;99.90
41294;DHT22;27037;52.010;4.446;2024-03-07T07:24:38;4.70;99.90
41294;DHT22;27037;52.010;4.446;2024-03-07T07:27:03;4.70;99.90
41294;DHT22;27037;52.010;4.446;2024-03-07T07:29:29;4.70;99.90
41294;DHT22;27037;52.010;4.446;2024-03-07T07:31:55;4.80;99.90
41294;DHT22;27037;52.010;4.446;2024-03-07T07:34:21;4.80;99.90
41294;DHT22;27037;52.010;4.446;2024-03-07T07:36:46;4.80;99.90
41294;DHT22;27037;52.010;4.446;2024-03-07T07:39:13;4.80;99.90
41294;DHT22;27037;52.010;4.446;2024-03-07T07:41:42;4.90;99.90
41294;DHT22;27037;52.010;4.446;2024-03-07T07:44:08;4.90;99.90
41294;DHT22;27037;52.010;4.446;2024-03-07T07:46:34;4.90;99.90
41294;DHT22;27037;52.010;4.446;2024-03-07T07:49:01;4.90;99.90
41294;DHT22;27037;52.010;4.446;2024-03-07T07:51:27;5.00;99.90
41294;DHT22;27037;52.010;4.446;2024-03-07T07:53:53;5.00;99.90
41294;DHT22;27037;52.010;4.446;2024-03-07T07:56:22;5.00;99.90
41294;DHT22;27037;52.010;4.446;2024-03-07T07:58:48;5.00;99.90
41294;DHT22;27037;52.010;4.446;2024-03-07T08:01:14;5.10;99.90
41294;DHT22;27037;52.010;4.446;2024-03-07T08:03:46;5.10;99.90
41294;DHT22;27037;52.010;4.446;2024-03-07T08:06:11;5.10;99.90
41294;DHT22;27037;52.010;4.446;2024-03-07T08:08:37;5.20;99.90
41294;DHT22;27037;52.010;4.446;2024-03-07T08:11:03;5.20;99.90
41294;DHT22;27037;52.010;4.446;2024-03-07T08:13:28;5.30;99.90
41294;DHT22;27037;52.010;4.446;2024-03-07T08:15:54;5.30;99.90
41294;DHT22;27037;52.010;4.446;2024-03-07T08:18:20;5.40;99.90
41294;DHT22;27037;52.010;4.446;2024-03-07T08:20:46;5.40;99.90
41294;DHT22;27037;52.010;4.446;2024-03-07T08:23:11;5.50;99.90
41294;DHT22;27037;52.010;4.446;2024-03-07T08:25:39;5.50;99.90
41294;DHT22;27037;52.010;4.446;2024-03-07T08:28:06;5.60;99.90
41294;DHT22;27037;52.010;4.446;2024-03-07T08:30:32;5.70;99.90
41294;DHT22;27037;52.010;4.446;2024-03-07T08:32:58;5.70;99.90
41294;DHT22;27037;52.010;4.446;2024-03-07T08:35:30;5.80;99.90
41294;DHT22;27037;52.010;4.446;2024-03-07T08:37:56;5.90;99.90
41294;DHT22;27037;52.010;4.446;2024-03-07T08:40:27;6.00;99.90
41294;DHT22;27037;52.010;4.446;2024-03-07T08:42:57;6.10;99.90
41294;DHT22;27037;52.010;4.446;2024-03-07T08:45:23;6.20;99.90
41294;DHT22;27037;52.010;4.446;2024-03-07T08:47:51;6.20;99.90
41294;DHT22;27037;52.010;4.446;2024-03-07T08:50:17;6.40;99.90
41294;DHT22;27037;52.010;4.446;2024-03-07T08:52:47;6.50;99.90
41294;DHT22;27037;52.010;4.446;2024-03-07T08:55:19;6.60;99.90
41294;DHT22;27037;52.010;4.446;2024-03-07T08:57:45;6.70;99.90
41294;DHT22;27037;52.010;4.446;2024-03-07T09:00:12;6.80;99.90
41294;DHT22;27037;52.010;4.446;2024-03-07T09:02:49;6.90;99.90
41294;DHT22;27037;52.010;4.446;2024-03-07T09:05:19;7.00;99.90
41294;DHT22;27037;52.010;4.446;2024-03-07T09:07:46;7.10;99.90
41294;DHT22;27037;52.010;4.446;2024-03-07T09:10:12;7.20;99.90
41294;DHT22;27037;52.010;4.446;2024-03-07T09:12:38;7.30;99.90
41294;DHT22;27037;52.010;4.446;2024-03-07T09:15:04;7.30;99.90
41294;DHT22;27037;52.010;4.446;2024-03-07T09:17:30;7.40;99.90
41294;DHT22;27037;52.010;4.446;2024-03-07T09:19:55;7.50;99.90
41294;DHT22;27037;52.010;4.446;2024-03-07T09:22:21;7.60;99.90
41294;DHT22;27037;52.010;4.446;2024-03-07T09:24:46;7.70;99.90
41294;DHT22;27037;52.010;4.446;2024-03-07T09:27:12;7.70;99.90
41294;DHT22;27037;52.010;4.446;2024-03-07T09:29:40;7.80;99.90
41294;DHT22;27037;52.010;4.446;2024-03-07T09:32:06;7.80;99.90
41294;DHT22;27037;52.010;4.446;2024-03-07T09:34:34;7.90;99.90
41294;DHT22;27037;52.010;4.446;2024-03-07T09:37:01;8.00;99.90
41294;DHT22;27037;52.010;4.446;2024-03-07T09:39:27;8.10;99.90
41294;DHT22;27037;52.010;4.446;2024-03-07T09:41:53;8.20;99.90
41294;DHT22;27037;52.010;4.446;2024-03-07T09:44:21;8.30;99.90
41294;DHT22;27037;52.010;4.446;2024-03-07T09:46:54;8.30;99.90
41294;DHT22;27037;52.010;4.446;2024-03-07T09:49:20;8.40;99.90
41294;DHT22;27037;52.010;4.446;2024-03-07T09:51:47;8.50;99.90
41294;DHT22;27037;52.010;4.446;2024-03-07T09:54:13;8.50;99.90
41294;DHT22;27037;52.010;4.446;2024-03-07T09:56:41;8.60;99.90
41294;DHT22;27037;52.010;4.446;2024-03-07T09:59:11;8.60;99.90
41294;DHT22;27037;52.010;4.446;2024-03-07T10:01:41;8.60;99.90
41294;DHT22;27037;52.010;4.446;2024-03-07T10:04:12;8.70;99.90
41294;DHT22;27037;52.010;4.446;2024-03-07T10:06:40;8.70;99.90
41294;DHT22;27037;52.010;4.446;2024-03-07T10:09:08;8.80;99.90
41294;DHT22;27037;52.010;4.446;2024-03-07T10:11:39;8.80;99.90
41294;DHT22;27037;52.010;4.446;2024-03-07T10:14:04;8.90;99.90
41294;DHT22;27037;52.010;4.446;2024-03-07T10:16:31;8.90;99.90
41294;DHT22;27037;52.010;4.446;2024-03-07T10:18:57;9.00;99.90
41294;DHT22;27037;52.010;4.446;2024-03-07T10:21:23;9.00;99.90
41294;DHT22;27037;52.010;4.446;2024-03-07T10:23:49;9.00;99.90
41294;DHT22;27037;52.010;4.446;2024-03-07T10:26:17;9.10;99.90
41294;DHT22;27037;52.010;4.446;2024-03-07T10:28:43;9.20;99.90
41294;DHT22;27037;52.010;4.446;2024-03-07T10:31:08;9.30;99.90
41294;DHT22;27037;52.010;4.446;2024-03-07T10:33:40;9.40;99.90
41294;DHT22;27037;52.010;4.446;2024-03-07T10:36:06;9.40;99.90
41294;DHT22;27037;52.010;4.446;2024-03-07T10:38:36;9.50;99.90
41294;DHT22;27037;52.010;4.446;2024-03-07T10:41:03;9.60;99.90
41294;DHT22;27037;52.010;4.446;2024-03-07T10:43:36;9.60;99.90
41294;DHT22;27037;52.010;4.446;2024-03-07T10:46:05;9.70;99.90
41294;DHT22;27037;52.010;4.446;2024-03-07T10:48:37;9.70;99.90
41294;DHT22;27037;52.010;4.446;2024-03-07T10:51:13;9.80;99.90
41294;DHT22;27037;52.010;4.446;2024-03-07T10:54:08;9.80;99.90
41294;DHT22;27037;52.010;4.446;2024-03-07T10:59:18;9.90;99.90
41294;DHT22;27037;52.010;4.446;2024-03-07T11:04:23;9.90;99.90
41294;DHT22;27037;52.010;4.446;2024-03-07T11:06:49;10.00;99.90
41294;DHT22;27037;52.010;4.446;2024-03-07T11:09:15;10.10;99.90
41294;DHT22;27037;52.010;4.446;2024-03-07T11:11:49;10.20;99.90
41294;DHT22;27037;52.010;4.446;2024-03-07T11:14:14;10.20;99.90
41294;DHT22;27037;52.010;4.446;2024-03-07T11:16:42;10.30;99.90
41294;DHT22;27037;52.010;4.446;2024-03-07T11:19:24;10.40;99.90
41294;DHT22;27037;52.010;4.446;2024-03-07T11:21:51;10.50;99.90
41294;DHT22;27037;52.010;4.446;2024-03-07T11:24:27;10.50;99.90
41294;DHT22;27037;52.010;4.446;2024-03-07T11:26:55;10.60;99.90
41294;DHT22;27037;52.010;4.446;2024-03-07T11:29:40;10.50;99.90
41294;DHT22;27037;52.010;4.446;2024-03-07T11:32:12;10.60;99.90
41294;DHT22;27037;52.010;4.446;2024-03-07T11:34:39;10.70;99.90
41294;DHT22;27037;52.010;4.446;2024-03-07T11:37:20;10.70;99.90
41294;DHT22;27037;52.010;4.446;2024-03-07T11:40:02;10.70;99.90
41294;DHT22;27037;52.010;4.446;2024-03-07T11:42:34;10.70;99.90
41294;DHT22;27037;52.010;4.446;2024-03-07T11:45:02;10.70;99.90
41294;DHT22;27037;52.010;4.446;2024-03-07T11:47:38;10.70;99.90
41294;DHT22;27037;52.010;4.446;2024-03-07T11:50:04;10.70;99.90
41294;DHT22;27037;52.010;4.446;2024-03-07T11:52:33;10.70;99.90
41294;DHT22;27037;52.010;4.446;2024-03-07T11:55:02;10.80;99.90
41294;DHT22;27037;52.010;4.446;2024-03-07T11:57:30;10.90;99.90
41294;DHT22;27037;52.010;4.446;2024-03-07T11:59:59;10.90;99.90
41294;DHT22;27037;52.010;4.446;2024-03-07T12:02:37;10.90;99.90
41294;DHT22;27037;52.010;4.446;2024-03-07T12:05:04;10.90;99.90
41294;DHT22;27037;52.010;4.446;2024-03-07T12:07:33;10.90;99.90
41294;DHT22;27037;52.010;4.446;2024-03-07T12:10:00;10.90;99.90
41294;DHT22;27037;52.010;4.446;2024-03-07T12:12:29;11.00;99.90
41294;DHT22;27037;52.010;4.446;2024-03-07T12:14:55;10.90;99.90
41294;DHT22;27037;52.010;4.446;2024-03-07T12:17:22;11.00;99.90
41294;DHT22;27037;52.010;4.446;2024-03-07T12:19:48;11.10;99.90
41294;DHT22;27037;52.010;4.446;2024-03-07T12:22:19;11.00;99.90
41294;DHT22;27037;52.010;4.446;2024-03-07T12:24:59;11.00;99.90
41294;DHT22;27037;52.010;4.446;2024-03-07T12:27:27;11.10;99.90
41294;DHT22;27037;52.010;4.446;2024-03-07T12:29:53;11.20;99.90
41294;DHT22;27037;52.010;4.446;2024-03-07T12:32:19;11.30;99.90
41294;DHT22;27037;52.010;4.446;2024-03-07T12:34:45;11.30;99.90
41294;DHT22;27037;52.010;4.446;2024-03-07T12:37:13;11.40;99.90
41294;DHT22;27037;52.010;4.446;2024-03-07T12:39:45;11.40;99.90
41294;DHT22;27037;52.010;4.446;2024-03-07T12:42:24;11.50;99.90
41294;DHT22;27037;52.010;4.446;2024-03-07T12:44:50;11.50;99.90
41294;DHT22;27037;52.010;4.446;2024-03-07T12:47:16;11.50;99.90
41294;DHT22;27037;52.010;4.446;2024-03-07T12:49:45;11.60;99.90
41294;DHT22;27037;52.010;4.446;2024-03-07T12:52:12;11.60;99.90
41294;DHT22;27037;52.010;4.446;2024-03-07T12:54:43;11.60;99.90
41294;DHT22;27037;52.010;4.446;2024-03-07T12:57:12;11.60;99.90
41294;DHT22;27037;52.010;4.446;2024-03-07T12:59:39;11.60;99.90
41294;DHT22;27037;52.010;4.446;2024-03-07T13:02:08;11.60;99.90
41294;DHT22;27037;52.010;4.446;2024-03-07T13:04:34;11.50;99.90
41294;DHT22;27037;52.010;4.446;2024-03-07T13:07:00;11.40;99.90
41294;DHT22;27037;52.010;4.446;2024-03-07T13:09:30;11.30;99.90
41294;DHT22;27037;52.010;4.446;2024-03-07T13:11:59;11.30;99.90
41294;DHT22;27037;52.010;4.446;2024-03-07T13:14:32;11.20;99.90
41294;DHT22;27037;52.010;4.446;2024-03-07T13:17:00;11.20;99.90
41294;DHT22;27037;52.010;4.446;2024-03-07T13:19:27;11.30;99.90
41294;DHT22;27037;52.010;4.446;2024-03-07T13:21:52;11.40;99.90
41294;DHT22;27037;52.010;4.446;2024-03-07T13:24:19;11.50;99.90
41294;DHT22;27037;52.010;4.446;2024-03-07T13:26:45;11.50;99.90
41294;DHT22;27037;52.010;4.446;2024-03-07T13:29:14;11.50;99.90
41294;DHT22;27037;52.010;4.446;2024-03-07T13:31:40;11.60;99.90
41294;DHT22;27037;52.010;4.446;2024-03-07T13:34:08;11.60;99.90
41294;DHT22;27037;52.010;4.446;2024-03-07T13:36:41;11.60;99.90
41294;DHT22;27037;52.010;4.446;2024-03-07T13:39:11;11.50;99.90
41294;DHT22;27037;52.010;4.446;2024-03-07T13:41:41;11.50;99.90
41294;DHT22;27037;52.010;4.446;2024-03-07T13:44:07;11.50;99.90
41294;DHT22;27037;52.010;4.446;2024-03-07T13:46:33;11.50;99.90
41294;DHT22;27037;52.010;4.446;2024-03-07T13:49:03;11.30;99.90
41294;DHT22;27037;52.010;4.446;2024-03-07T13:51:39;11.10;99.90
41294;DHT22;27037;52.010;4.446;2024-03-07T13:54:24;11.00;99.90
41294;DHT22;27037;52.010;4.446;2024-03-07T13:57:26;11.00;99.90
41294;DHT22;27037;52.010;4.446;2024-03-07T14:00:05;10.90;99.90
41294;DHT22;27037;52.010;4.446;2024-03-07T14:08:46;10.90;99.90
41294;DHT22;27037;52.010;4.446;2024-03-07T14:14:28;10.80;99.90
41294;DHT22;27037;52.010;4.446;2024-03-07T14:23:06;10.70;99.90
41294;DHT22;27037;52.010;4.446;2024-03-07T14:25:57;10.60;99.90
41294;DHT22;27037;52.010;4.446;2024-03-07T14:31:16;10.70;99.90
41294;DHT22;27037;52.010;4.446;2024-03-07T14:34:10;10.60;99.90
41294;DHT22;27037;52.010;4.446;2024-03-07T14:36:44;10.60;99.90
41294;DHT22;27037;52.010;4.446;2024-03-07T14:39:14;10.50;99.90
41294;DHT22;27037;52.010;4.446;2024-03-07T14:44:20;10.60;99.90
41294;DHT22;27037;52.010;4.446;2024-03-07T14:46:51;10.60;99.90
41294;DHT22;27037;52.010;4.446;2024-03-07T14:49:19;10.50;99.90
41294;DHT22;27037;52.010;4.446;2024-03-07T14:51:45;10.50;99.90
41294;DHT22;27037;52.010;4.446;2024-03-07T14:54:12;10.50;99.90
41294;DHT22;27037;52.010;4.446;2024-03-07T14:56:38;10.40;99.90
41294;DHT22;27037;52.010;4.446;2024-03-07T14:59:03;10.40;99.90
41294;DHT22;27037;52.010;4.446;2024-03-07T15:01:31;10.30;99.90
41294;DHT22;27037;52.010;4.446;2024-03-07T15:04:02;10.20;99.90
41294;DHT22;27037;52.010;4.446;2024-03-07T15:06:34;10.20;99.90
41294;DHT22;27037;52.010;4.446;2024-03-07T15:09:01;10.20;99.90
41294;DHT22;27037;52.010;4.446;2024-03-07T15:11:29;10.30;99.90
41294;DHT22;27037;52.010;4.446;2024-03-07T15:13:58;10.40;99.90
41294;DHT22;27037;52.010;4.446;2024-03-07T15:16:24;10.40;99.90
41294;DHT22;27037;52.010;4.446;2024-03-07T15:18:49;10.50;99.90
41294;DHT22;27037;52.010;4.446;2024-03-07T15:21:15;10.50;99.90
41294;DHT22;27037;52.010;4.446;2024-03-07T15:23:42;10.60;99.90
41294;DHT22;27037;52.010;4.446;2024-03-07T15:26:08;10.60;99.90
41294;DHT22;27037;52.010;4.446;2024-03-07T15:28:34;10.60;99.90
41294;DHT22;27037;52.010;4.446;2024-03-07T15:31:01;10.60;99.90
41294;DHT22;27037;52.010;4.446;2024-03-07T15:33:34;10.50;99.90
41294;DHT22;27037;52.010;4.446;2024-03-07T15:36:00;10.50;99.90
41294;DHT22;27037;52.010;4.446;2024-03-07T15:38:28;10.40;99.90
41294;DHT22;27037;52.010;4.446;2024-03-07T15:41:02;10.40;99.90
41294;DHT22;27037;52.010;4.446;2024-03-07T15:43:28;10.40;99.90
41294;DHT22;27037;52.010;4.446;2024-03-07T15:45:54;10.50;99.90
41294;DHT22;27037;52.010;4.446;2024-03-07T15:48:22;10.40;99.90
41294;DHT22;27037;52.010;4.446;2024-03-07T15:50:50;10.40;99.90
41294;DHT22;27037;52.010;4.446;2024-03-07T15:53:17;10.40;99.90
41294;DHT22;27037;52.010;4.446;2024-03-07T15:55:45;10.40;99.90
41294;DHT22;27037;52.010;4.446;2024-03-07T15:58:11;10.40;99.90
41294;DHT22;27037;52.010;4.446;2024-03-07T16:00:37;10.40;99.90
41294;DHT22;27037;52.010;4.446;2024-03-07T16:03:07;10.30;99.90
41294;DHT22;27037;52.010;4.446;2024-03-07T16:05:37;10.10;99.90
41294;DHT22;27037;52.010;4.446;2024-03-07T16:08:05;10.10;99.90
41294;DHT22;27037;52.010;4.446;2024-03-07T16:10:35;10.00;99.90
41294;DHT22;27037;52.010;4.446;2024-03-07T16:13:06;9.90;99.90